sensor_id;sensor_type;location;lat;lon;timestamp;P1;durP1;ratioP1;P2;durP2;ratioP2
73684;SDS011;61985;51.070;14.064;2023-05-29T00:01:22;8.18;;;3.80;;
73684;SDS011;61985;51.070;14.064;2023-05-29T00:03:49;8.82;;;3.15;;
73684;SDS011;61985;51.070;14.064;2023-05-29T00:06:15;7.68;;;3.53;;
73684;SDS011;61985;51.070;14.064;2023-05-29T00:08:40;8.25;;;3.83;;
73684;SDS011;61985;51.070;14.064;2023-05-29T00:11:06;6.70;;;3.88;;
73684;SDS011;61985;51.070;14.064;2023-05-29T00:13:32;8.30;;;4.57;;
73684;SDS011;61985;51.070;14.064;2023-05-29T00:15:57;8.98;;;3.95;;
73684;SDS011;61985;51.070;14.064;2023-05-29T00:18:24;7.45;;;3.90;;
73684;SDS011;61985;51.070;14.064;2023-05-29T00:20:50;7.90;;;4.07;;
73684;SDS011;61985;51.070;14.064;2023-05-29T00:23:17;7.95;;;3.75;;
73684;SDS011;61985;51.070;14.064;2023-05-29T00:25:43;6.88;;;3.78;;
73684;SDS011;61985;51.070;14.064;2023-05-29T00:28:09;8.82;;;4.07;;
73684;SDS011;61985;51.070;14.064;2023-05-29T00:30:34;9.43;;;4.35;;
73684;SDS011;61985;51.070;14.064;2023-05-29T00:33:00;8.45;;;4.75;;
73684;SDS011;61985;51.070;14.064;2023-05-29T00:35:25;8.63;;;4.40;;
73684;SDS011;61985;51.070;14.064;2023-05-29T00:37:50;6.78;;;3.63;;
73684;SDS011;61985;51.070;14.064;2023-05-29T00:40:16;7.55;;;4.05;;
73684;SDS011;61985;51.070;14.064;2023-05-29T00:42:41;6.95;;;3.90;;
73684;SDS011;61985;51.070;14.064;2023-05-29T00:45:07;7.15;;;3.83;;
73684;SDS011;61985;51.070;14.064;2023-05-29T00:47:33;8.98;;;4.22;;
73684;SDS011;61985;51.070;14.064;2023-05-29T00:49:58;7.95;;;3.83;;
73684;SDS011;61985;51.070;14.064;2023-05-29T00:52:24;6.75;;;3.75;;
73684;SDS011;61985;51.070;14.064;2023-05-29T00:54:50;5.82;;;3.58;;
73684;SDS011;61985;51.070;14.064;2023-05-29T00:57:16;6.70;;;3.70;;
73684;SDS011;61985;51.070;14.064;2023-05-29T00:59:42;7.30;;;3.58;;
73684;SDS011;61985;51.070;14.064;2023-05-29T01:02:10;6.97;;;3.55;;
73684;SDS011;61985;51.070;14.064;2023-05-29T01:04:35;8.10;;;3.63;;
73684;SDS011;61985;51.070;14.064;2023-05-29T01:07:01;7.75;;;3.05;;
73684;SDS011;61985;51.070;14.064;2023-05-29T01:09:27;7.85;;;3.30;;
73684;SDS011;61985;51.070;14.064;2023-05-29T01:12:08;6.13;;;2.97;;
73684;SDS011;61985;51.070;14.064;2023-05-29T01:17:32;8.00;;;3.58;;
73684;SDS011;61985;51.070;14.064;2023-05-29T01:20:24;7.57;;;3.85;;
73684;SDS011;61985;51.070;14.064;2023-05-29T01:28:52;7.75;;;3.58;;
73684;SDS011;61985;51.070;14.064;2023-05-29T01:31:22;5.28;;;2.95;;
73684;SDS011;61985;51.070;14.064;2023-05-29T01:33:57;7.60;;;3.20;;
73684;SDS011;61985;51.070;14.064;2023-05-29T01:36:24;7.20;;;3.42;;
73684;SDS011;61985;51.070;14.064;2023-05-29T01:38:51;6.53;;;3.17;;
73684;SDS011;61985;51.070;14.064;2023-05-29T01:41:18;5.53;;;3.03;;
73684;SDS011;61985;51.070;14.064;2023-05-29T01:43:45;6.45;;;3.60;;
73684;SDS011;61985;51.070;14.064;2023-05-29T01:46:12;5.93;;;3.50;;
73684;SDS011;61985;51.070;14.064;2023-05-29T01:48:39;5.97;;;3.40;;
73684;SDS011;61985;51.070;14.064;2023-05-29T01:51:05;8.98;;;3.72;;
73684;SDS011;61985;51.070;14.064;2023-05-29T01:53:32;6.72;;;3.60;;
73684;SDS011;61985;51.070;14.064;2023-05-29T01:55:57;7.20;;;3.67;;
73684;SDS011;61985;51.070;14.064;2023-05-29T01:58:23;7.35;;;3.67;;
73684;SDS011;61985;51.070;14.064;2023-05-29T02:00:50;6.55;;;3.90;;
73684;SDS011;61985;51.070;14.064;2023-05-29T02:03:15;8.25;;;3.88;;
73684;SDS011;61985;51.070;14.064;2023-05-29T02:05:40;7.82;;;3.80;;
73684;SDS011;61985;51.070;14.064;2023-05-29T02:08:06;7.25;;;4.05;;
73684;SDS011;61985;51.070;14.064;2023-05-29T02:10:31;8.02;;;4.00;;
73684;SDS011;61985;51.070;14.064;2023-05-29T02:12:57;9.35;;;3.95;;
73684;SDS011;61985;51.070;14.064;2023-05-29T02:15:22;8.23;;;4.50;;
73684;SDS011;61985;51.070;14.064;2023-05-29T02:17:48;7.60;;;4.43;;
73684;SDS011;61985;51.070;14.064;2023-05-29T02:20:14;8.15;;;4.47;;
73684;SDS011;61985;51.070;14.064;2023-05-29T02:22:40;8.80;;;4.60;;
73684;SDS011;61985;51.070;14.064;2023-05-29T02:25:06;5.78;;;3.53;;
73684;SDS011;61985;51.070;14.064;2023-05-29T02:27:32;8.73;;;4.25;;
73684;SDS011;61985;51.070;14.064;2023-05-29T02:29:57;6.72;;;4.00;;
73684;SDS011;61985;51.070;14.064;2023-05-29T02:32:23;7.07;;;3.92;;
73684;SDS011;61985;51.070;14.064;2023-05-29T02:34:49;7.70;;;4.00;;
73684;SDS011;61985;51.070;14.064;2023-05-29T02:37:14;8.70;;;4.70;;
73684;SDS011;61985;51.070;14.064;2023-05-29T02:39:40;10.38;;;4.10;;
73684;SDS011;61985;51.070;14.064;2023-05-29T02:42:05;8.50;;;4.00;;
73684;SDS011;61985;51.070;14.064;2023-05-29T02:44:31;8.98;;;4.78;;
73684;SDS011;61985;51.070;14.064;2023-05-29T02:46:56;8.50;;;4.57;;
73684;SDS011;61985;51.070;14.064;2023-05-29T02:49:21;7.68;;;3.92;;
73684;SDS011;61985;51.070;14.064;2023-05-29T02:51:46;8.20;;;4.28;;
73684;SDS011;61985;51.070;14.064;2023-05-29T02:54:12;8.20;;;4.82;;
73684;SDS011;61985;51.070;14.064;2023-05-29T02:56:38;8.00;;;4.30;;
73684;SDS011;61985;51.070;14.064;2023-05-29T02:59:04;10.15;;;5.30;;
73684;SDS011;61985;51.070;14.064;2023-05-29T03:01:29;9.05;;;4.88;;
73684;SDS011;61985;51.070;14.064;2023-05-29T03:03:55;7.55;;;4.13;;
73684;SDS011;61985;51.070;14.064;2023-05-29T03:06:21;8.23;;;4.47;;
73684;SDS011;61985;51.070;14.064;2023-05-29T03:08:47;8.32;;;4.32;;
73684;SDS011;61985;51.070;14.064;2023-05-29T03:11:13;6.78;;;4.07;;
73684;SDS011;61985;51.070;14.064;2023-05-29T03:13:40;7.00;;;3.88;;
73684;SDS011;61985;51.070;14.064;2023-05-29T03:16:05;8.02;;;3.50;;
73684;SDS011;61985;51.070;14.064;2023-05-29T03:18:33;7.57;;;3.47;;
73684;SDS011;61985;51.070;14.064;2023-05-29T03:20:58;7.25;;;3.88;;
73684;SDS011;61985;51.070;14.064;2023-05-29T03:23:24;7.00;;;3.97;;
73684;SDS011;61985;51.070;14.064;2023-05-29T03:25:49;6.50;;;3.70;;
73684;SDS011;61985;51.070;14.064;2023-05-29T03:28:14;8.32;;;4.07;;
73684;SDS011;61985;51.070;14.064;2023-05-29T03:30:40;8.35;;;4.03;;
73684;SDS011;61985;51.070;14.064;2023-05-29T03:33:05;7.60;;;4.18;;
73684;SDS011;61985;51.070;14.064;2023-05-29T03:35:31;7.75;;;3.47;;
73684;SDS011;61985;51.070;14.064;2023-05-29T03:37:56;6.15;;;3.30;;
73684;SDS011;61985;51.070;14.064;2023-05-29T03:40:22;10.00;;;3.67;;
73684;SDS011;61985;51.070;14.064;2023-05-29T03:42:47;7.20;;;3.97;;
73684;SDS011;61985;51.070;14.064;2023-05-29T03:45:13;9.32;;;4.32;;
73684;SDS011;61985;51.070;14.064;2023-05-29T03:47:38;7.03;;;4.07;;
73684;SDS011;61985;51.070;14.064;2023-05-29T03:50:04;7.78;;;3.85;;
73684;SDS011;61985;51.070;14.064;2023-05-29T03:52:30;7.22;;;3.58;;
73684;SDS011;61985;51.070;14.064;2023-05-29T03:54:55;5.97;;;3.47;;
73684;SDS011;61985;51.070;14.064;2023-05-29T03:57:20;6.75;;;3.70;;
73684;SDS011;61985;51.070;14.064;2023-05-29T03:59:46;7.57;;;3.80;;
73684;SDS011;61985;51.070;14.064;2023-05-29T04:02:11;12.23;;;4.22;;
73684;SDS011;61985;51.070;14.064;2023-05-29T04:04:36;6.65;;;3.70;;
73684;SDS011;61985;51.070;14.064;2023-05-29T04:07:02;8.23;;;3.60;;
73684;SDS011;61985;51.070;14.064;2023-05-29T04:09:28;8.55;;;3.90;;
73684;SDS011;61985;51.070;14.064;2023-05-29T04:11:54;6.35;;;3.92;;
73684;SDS011;61985;51.070;14.064;2023-05-29T04:14:20;7.60;;;3.80;;
73684;SDS011;61985;51.070;14.064;2023-05-29T04:16:45;7.97;;;4.30;;
73684;SDS011;61985;51.070;14.064;2023-05-29T04:19:10;7.88;;;3.78;;
73684;SDS011;61985;51.070;14.064;2023-05-29T04:21:36;8.52;;;3.85;;
73684;SDS011;61985;51.070;14.064;2023-05-29T04:24:01;8.00;;;4.05;;
73684;SDS011;61985;51.070;14.064;2023-05-29T04:26:26;7.55;;;4.60;;
73684;SDS011;61985;51.070;14.064;2023-05-29T04:28:52;8.55;;;3.95;;
73684;SDS011;61985;51.070;14.064;2023-05-29T04:31:23;8.23;;;4.30;;
73684;SDS011;61985;51.070;14.064;2023-05-29T04:33:50;5.68;;;3.80;;
73684;SDS011;61985;51.070;14.064;2023-05-29T04:36:20;7.43;;;3.72;;
73684;SDS011;61985;51.070;14.064;2023-05-29T04:38:50;8.05;;;5.40;;
73684;SDS011;61985;51.070;14.064;2023-05-29T04:41:16;7.47;;;4.20;;
73684;SDS011;61985;51.070;14.064;2023-05-29T04:43:42;12.48;;;3.90;;
73684;SDS011;61985;51.070;14.064;2023-05-29T04:46:07;7.97;;;3.83;;
73684;SDS011;61985;51.070;14.064;2023-05-29T04:48:37;7.35;;;4.20;;
73684;SDS011;61985;51.070;14.064;2023-05-29T04:51:05;10.10;;;4.53;;
73684;SDS011;61985;51.070;14.064;2023-05-29T04:53:31;11.95;;;5.47;;
73684;SDS011;61985;51.070;14.064;2023-05-29T04:55:57;9.35;;;5.70;;
73684;SDS011;61985;51.070;14.064;2023-05-29T04:58:24;8.25;;;4.57;;
73684;SDS011;61985;51.070;14.064;2023-05-29T05:00:51;8.63;;;4.82;;
73684;SDS011;61985;51.070;14.064;2023-05-29T05:03:16;7.70;;;4.00;;
73684;SDS011;61985;51.070;14.064;2023-05-29T05:05:42;10.82;;;4.43;;
73684;SDS011;61985;51.070;14.064;2023-05-29T05:08:08;8.35;;;4.25;;
73684;SDS011;61985;51.070;14.064;2023-05-29T05:10:36;7.47;;;3.90;;
73684;SDS011;61985;51.070;14.064;2023-05-29T05:13:02;7.22;;;3.55;;
73684;SDS011;61985;51.070;14.064;2023-05-29T05:15:27;8.48;;;4.32;;
73684;SDS011;61985;51.070;14.064;2023-05-29T05:17:53;7.63;;;4.05;;
73684;SDS011;61985;51.070;14.064;2023-05-29T05:20:18;6.68;;;4.07;;
73684;SDS011;61985;51.070;14.064;2023-05-29T05:22:44;6.88;;;4.05;;
73684;SDS011;61985;51.070;14.064;2023-05-29T05:25:09;8.65;;;3.60;;
73684;SDS011;61985;51.070;14.064;2023-05-29T05:27:35;9.88;;;4.05;;
73684;SDS011;61985;51.070;14.064;2023-05-29T05:30:01;8.43;;;3.78;;
73684;SDS011;61985;51.070;14.064;2023-05-29T05:32:28;7.43;;;3.80;;
73684;SDS011;61985;51.070;14.064;2023-05-29T05:34:53;7.63;;;3.65;;
73684;SDS011;61985;51.070;14.064;2023-05-29T05:37:18;6.40;;;3.50;;
73684;SDS011;61985;51.070;14.064;2023-05-29T05:39:44;7.45;;;3.42;;
73684;SDS011;61985;51.070;14.064;2023-05-29T05:42:09;8.80;;;3.58;;
73684;SDS011;61985;51.070;14.064;2023-05-29T05:44:35;6.07;;;3.30;;
73684;SDS011;61985;51.070;14.064;2023-05-29T05:47:01;6.22;;;3.42;;
73684;SDS011;61985;51.070;14.064;2023-05-29T05:49:26;8.93;;;3.53;;
73684;SDS011;61985;51.070;14.064;2023-05-29T05:51:52;6.35;;;3.60;;
73684;SDS011;61985;51.070;14.064;2023-05-29T05:54:17;7.72;;;3.88;;
73684;SDS011;61985;51.070;14.064;2023-05-29T05:56:43;7.43;;;4.03;;
73684;SDS011;61985;51.070;14.064;2023-05-29T05:59:08;7.82;;;3.90;;
73684;SDS011;61985;51.070;14.064;2023-05-29T06:01:33;9.32;;;4.53;;
73684;SDS011;61985;51.070;14.064;2023-05-29T06:06:32;12.20;;;4.13;;
73684;SDS011;61985;51.070;14.064;2023-05-29T06:08:57;7.40;;;3.63;;
73684;SDS011;61985;51.070;14.064;2023-05-29T06:11:24;9.45;;;4.00;;
73684;SDS011;61985;51.070;14.064;2023-05-29T06:13:50;10.73;;;3.75;;
73684;SDS011;61985;51.070;14.064;2023-05-29T06:16:19;6.68;;;3.55;;
73684;SDS011;61985;51.070;14.064;2023-05-29T06:18:44;7.80;;;4.03;;
73684;SDS011;61985;51.070;14.064;2023-05-29T06:21:11;7.50;;;3.55;;
73684;SDS011;61985;51.070;14.064;2023-05-29T06:23:37;7.72;;;3.55;;
73684;SDS011;61985;51.070;14.064;2023-05-29T06:26:03;6.63;;;3.47;;
73684;SDS011;61985;51.070;14.064;2023-05-29T06:28:29;7.00;;;3.38;;
73684;SDS011;61985;51.070;14.064;2023-05-29T06:30:55;7.45;;;3.60;;
73684;SDS011;61985;51.070;14.064;2023-05-29T06:33:21;10.10;;;3.40;;
73684;SDS011;61985;51.070;14.064;2023-05-29T06:35:50;5.32;;;3.03;;
73684;SDS011;61985;51.070;14.064;2023-05-29T06:38:15;8.77;;;3.17;;
73684;SDS011;61985;51.070;14.064;2023-05-29T06:40:40;5.38;;;2.75;;
73684;SDS011;61985;51.070;14.064;2023-05-29T06:43:06;6.55;;;3.00;;
73684;SDS011;61985;51.070;14.064;2023-05-29T06:45:31;4.88;;;2.75;;
73684;SDS011;61985;51.070;14.064;2023-05-29T06:47:56;6.97;;;2.60;;
73684;SDS011;61985;51.070;14.064;2023-05-29T06:50:22;6.10;;;2.95;;
73684;SDS011;61985;51.070;14.064;2023-05-29T06:52:47;7.90;;;3.05;;
73684;SDS011;61985;51.070;14.064;2023-05-29T06:55:13;10.38;;;3.42;;
73684;SDS011;61985;51.070;14.064;2023-05-29T06:57:38;8.57;;;2.97;;
73684;SDS011;61985;51.070;14.064;2023-05-29T07:00:04;5.50;;;2.70;;
73684;SDS011;61985;51.070;14.064;2023-05-29T07:02:31;7.75;;;2.83;;
73684;SDS011;61985;51.070;14.064;2023-05-29T07:04:56;5.53;;;2.97;;
73684;SDS011;61985;51.070;14.064;2023-05-29T07:07:22;6.55;;;2.90;;
73684;SDS011;61985;51.070;14.064;2023-05-29T07:09:47;8.20;;;3.10;;
73684;SDS011;61985;51.070;14.064;2023-05-29T07:12:12;6.63;;;2.80;;
73684;SDS011;61985;51.070;14.064;2023-05-29T07:14:38;5.88;;;2.70;;
73684;SDS011;61985;51.070;14.064;2023-05-29T07:17:03;6.32;;;3.05;;
73684;SDS011;61985;51.070;14.064;2023-05-29T07:19:30;6.38;;;2.75;;
73684;SDS011;61985;51.070;14.064;2023-05-29T07:21:57;12.32;;;2.80;;
73684;SDS011;61985;51.070;14.064;2023-05-29T07:24:22;7.18;;;3.03;;
73684;SDS011;61985;51.070;14.064;2023-05-29T07:26:48;5.85;;;2.38;;
73684;SDS011;61985;51.070;14.064;2023-05-29T07:29:13;7.45;;;2.58;;
73684;SDS011;61985;51.070;14.064;2023-05-29T07:31:39;7.82;;;3.10;;
73684;SDS011;61985;51.070;14.064;2023-05-29T07:34:05;7.07;;;2.83;;
73684;SDS011;61985;51.070;14.064;2023-05-29T07:36:31;8.73;;;3.03;;
73684;SDS011;61985;51.070;14.064;2023-05-29T07:38:56;9.10;;;3.40;;
73684;SDS011;61985;51.070;14.064;2023-05-29T07:41:23;6.55;;;2.60;;
73684;SDS011;61985;51.070;14.064;2023-05-29T07:43:49;8.20;;;2.60;;
73684;SDS011;61985;51.070;14.064;2023-05-29T07:46:17;7.78;;;2.70;;
73684;SDS011;61985;51.070;14.064;2023-05-29T07:48:42;6.95;;;2.72;;
73684;SDS011;61985;51.070;14.064;2023-05-29T07:51:08;5.63;;;2.50;;
73684;SDS011;61985;51.070;14.064;2023-05-29T07:53:43;5.88;;;2.20;;
73684;SDS011;61985;51.070;14.064;2023-05-29T07:56:16;8.15;;;2.90;;
73684;SDS011;61985;51.070;14.064;2023-05-29T07:58:41;11.90;;;2.70;;
73684;SDS011;61985;51.070;14.064;2023-05-29T08:01:07;6.30;;;2.55;;
73684;SDS011;61985;51.070;14.064;2023-05-29T08:03:32;4.75;;;2.35;;
73684;SDS011;61985;51.070;14.064;2023-05-29T08:05:58;8.20;;;2.72;;
73684;SDS011;61985;51.070;14.064;2023-05-29T08:08:23;6.88;;;2.75;;
73684;SDS011;61985;51.070;14.064;2023-05-29T08:10:48;7.07;;;2.45;;
73684;SDS011;61985;51.070;14.064;2023-05-29T08:13:14;5.80;;;1.98;;
73684;SDS011;61985;51.070;14.064;2023-05-29T08:15:39;7.10;;;2.20;;
73684;SDS011;61985;51.070;14.064;2023-05-29T08:18:04;5.68;;;2.00;;
73684;SDS011;61985;51.070;14.064;2023-05-29T08:20:30;6.32;;;2.53;;
73684;SDS011;61985;51.070;14.064;2023-05-29T08:22:55;8.68;;;2.47;;
73684;SDS011;61985;51.070;14.064;2023-05-29T08:25:21;6.90;;;2.10;;
73684;SDS011;61985;51.070;14.064;2023-05-29T08:27:47;5.60;;;2.38;;
73684;SDS011;61985;51.070;14.064;2023-05-29T08:30:12;7.53;;;2.67;;
73684;SDS011;61985;51.070;14.064;2023-05-29T08:32:38;7.35;;;3.00;;
73684;SDS011;61985;51.070;14.064;2023-05-29T08:35:03;6.93;;;2.58;;
73684;SDS011;61985;51.070;14.064;2023-05-29T08:37:29;8.52;;;3.38;;
73684;SDS011;61985;51.070;14.064;2023-05-29T08:39:54;6.07;;;2.20;;
73684;SDS011;61985;51.070;14.064;2023-05-29T08:42:20;6.72;;;2.40;;
73684;SDS011;61985;51.070;14.064;2023-05-29T08:44:47;7.85;;;2.80;;
73684;SDS011;61985;51.070;14.064;2023-05-29T08:47:16;8.48;;;2.67;;
73684;SDS011;61985;51.070;14.064;2023-05-29T08:49:47;6.70;;;2.42;;
73684;SDS011;61985;51.070;14.064;2023-05-29T08:52:24;7.50;;;2.70;;
73684;SDS011;61985;51.070;14.064;2023-05-29T08:54:54;8.00;;;2.60;;
73684;SDS011;61985;51.070;14.064;2023-05-29T08:57:28;8.85;;;2.40;;
73684;SDS011;61985;51.070;14.064;2023-05-29T08:59:53;5.40;;;2.17;;
73684;SDS011;61985;51.070;14.064;2023-05-29T09:02:23;5.30;;;2.45;;
73684;SDS011;61985;51.070;14.064;2023-05-29T09:07:51;7.47;;;2.77;;
73684;SDS011;61985;51.070;14.064;2023-05-29T09:10:18;5.90;;;2.80;;
73684;SDS011;61985;51.070;14.064;2023-05-29T09:12:44;5.38;;;2.30;;
73684;SDS011;61985;51.070;14.064;2023-05-29T09:15:16;5.75;;;2.20;;
73684;SDS011;61985;51.070;14.064;2023-05-29T09:17:50;6.55;;;2.38;;
73684;SDS011;61985;51.070;14.064;2023-05-29T09:20:29;8.07;;;2.78;;
73684;SDS011;61985;51.070;14.064;2023-05-29T09:32:09;7.22;;;2.58;;
73684;SDS011;61985;51.070;14.064;2023-05-29T09:34:56;4.57;;;2.15;;
73684;SDS011;61985;51.070;14.064;2023-05-29T09:37:29;5.00;;;2.10;;
73684;SDS011;61985;51.070;14.064;2023-05-29T09:49:32;5.88;;;2.40;;
73684;SDS011;61985;51.070;14.064;2023-05-29T09:52:28;6.35;;;2.35;;
73684;SDS011;61985;51.070;14.064;2023-05-29T09:54:55;4.28;;;2.22;;
73684;SDS011;61985;51.070;14.064;2023-05-29T09:57:29;4.45;;;2.38;;
73684;SDS011;61985;51.070;14.064;2023-05-29T09:59:55;7.45;;;2.60;;
73684;SDS011;61985;51.070;14.064;2023-05-29T10:02:22;4.95;;;2.42;;
73684;SDS011;61985;51.070;14.064;2023-05-29T10:16:36;4.80;;;2.50;;
73684;SDS011;61985;51.070;14.064;2023-05-29T10:19:18;6.70;;;2.30;;
73684;SDS011;61985;51.070;14.064;2023-05-29T10:21:53;5.30;;;2.33;;
73684;SDS011;61985;51.070;14.064;2023-05-29T11:24:28;4.50;;;2.30;;
73684;SDS011;61985;51.070;14.064;2023-05-29T11:26:55;3.90;;;2.20;;
73684;SDS011;61985;51.070;14.064;2023-05-29T11:31:49;7.25;;;2.60;;
73684;SDS011;61985;51.070;14.064;2023-05-29T11:34:40;8.02;;;2.40;;
73684;SDS011;61985;51.070;14.064;2023-05-29T11:37:06;6.75;;;2.50;;
73684;SDS011;61985;51.070;14.064;2023-05-29T11:39:35;7.10;;;2.60;;
73684;SDS011;61985;51.070;14.064;2023-05-29T11:42:02;8.13;;;2.80;;
73684;SDS011;61985;51.070;14.064;2023-05-29T11:44:27;7.63;;;2.38;;
73684;SDS011;61985;51.070;14.064;2023-05-29T11:47:06;6.10;;;2.75;;
73684;SDS011;61985;51.070;14.064;2023-05-29T11:49:37;4.80;;;2.47;;
73684;SDS011;61985;51.070;14.064;2023-05-29T11:54:32;6.47;;;2.63;;
73684;SDS011;61985;51.070;14.064;2023-05-29T11:56:59;6.68;;;2.65;;
73684;SDS011;61985;51.070;14.064;2023-05-29T11:59:28;5.68;;;2.78;;
73684;SDS011;61985;51.070;14.064;2023-05-29T12:01:54;5.57;;;2.33;;
73684;SDS011;61985;51.070;14.064;2023-05-29T12:04:20;7.82;;;2.67;;
73684;SDS011;61985;51.070;14.064;2023-05-29T12:06:45;5.38;;;2.40;;
73684;SDS011;61985;51.070;14.064;2023-05-29T12:09:22;10.13;;;2.42;;
73684;SDS011;61985;51.070;14.064;2023-05-29T12:11:51;5.18;;;2.30;;
73684;SDS011;61985;51.070;14.064;2023-05-29T12:14:17;5.68;;;2.42;;
73684;SDS011;61985;51.070;14.064;2023-05-29T12:16:42;8.02;;;2.72;;
73684;SDS011;61985;51.070;14.064;2023-05-29T12:19:08;6.57;;;2.83;;
73684;SDS011;61985;51.070;14.064;2023-05-29T12:21:33;7.10;;;2.38;;
73684;SDS011;61985;51.070;14.064;2023-05-29T12:23:59;15.00;;;10.75;;
73684;SDS011;61985;51.070;14.064;2023-05-29T12:26:25;5.97;;;2.47;;
73684;SDS011;61985;51.070;14.064;2023-05-29T12:28:51;4.15;;;2.20;;
73684;SDS011;61985;51.070;14.064;2023-05-29T12:31:28;4.10;;;2.53;;
73684;SDS011;61985;51.070;14.064;2023-05-29T12:33:57;6.57;;;2.25;;
73684;SDS011;61985;51.070;14.064;2023-05-29T12:36:25;7.63;;;2.17;;
73684;SDS011;61985;51.070;14.064;2023-05-29T12:38:51;7.63;;;2.65;;
73684;SDS011;61985;51.070;14.064;2023-05-29T12:41:21;6.72;;;2.20;;
73684;SDS011;61985;51.070;14.064;2023-05-29T12:43:52;5.05;;;2.28;;
73684;SDS011;61985;51.070;14.064;2023-05-29T12:46:19;5.80;;;2.22;;
73684;SDS011;61985;51.070;14.064;2023-05-29T12:48:45;5.20;;;2.40;;
73684;SDS011;61985;51.070;14.064;2023-05-29T12:51:10;7.05;;;2.42;;
73684;SDS011;61985;51.070;14.064;2023-05-29T12:53:36;6.45;;;2.40;;
73684;SDS011;61985;51.070;14.064;2023-05-29T12:56:02;5.28;;;2.65;;
73684;SDS011;61985;51.070;14.064;2023-05-29T12:58:27;5.95;;;2.47;;
73684;SDS011;61985;51.070;14.064;2023-05-29T13:00:53;6.75;;;3.00;;
73684;SDS011;61985;51.070;14.064;2023-05-29T13:03:21;5.45;;;2.15;;
73684;SDS011;61985;51.070;14.064;2023-05-29T13:05:50;5.22;;;2.58;;
73684;SDS011;61985;51.070;14.064;2023-05-29T13:08:16;4.65;;;2.65;;
73684;SDS011;61985;51.070;14.064;2023-05-29T13:10:42;4.97;;;2.60;;
73684;SDS011;61985;51.070;14.064;2023-05-29T13:13:09;4.95;;;2.65;;
73684;SDS011;61985;51.070;14.064;2023-05-29T13:15:35;5.35;;;2.45;;
73684;SDS011;61985;51.070;14.064;2023-05-29T13:18:00;7.03;;;2.80;;
73684;SDS011;61985;51.070;14.064;2023-05-29T13:20:26;8.27;;;3.22;;
73684;SDS011;61985;51.070;14.064;2023-05-29T13:22:51;8.30;;;2.83;;
73684;SDS011;61985;51.070;14.064;2023-05-29T13:25:19;4.88;;;2.60;;
73684;SDS011;61985;51.070;14.064;2023-05-29T13:27:48;6.75;;;2.45;;
73684;SDS011;61985;51.070;14.064;2023-05-29T13:30:14;5.28;;;2.63;;
73684;SDS011;61985;51.070;14.064;2023-05-29T13:32:40;7.50;;;2.40;;
73684;SDS011;61985;51.070;14.064;2023-05-29T13:35:06;5.25;;;2.63;;
73684;SDS011;61985;51.070;14.064;2023-05-29T13:37:32;5.65;;;2.60;;
73684;SDS011;61985;51.070;14.064;2023-05-29T13:39:57;9.85;;;2.90;;
73684;SDS011;61985;51.070;14.064;2023-05-29T13:42:23;7.35;;;2.60;;
73684;SDS011;61985;51.070;14.064;2023-05-29T13:44:48;8.85;;;2.58;;
73684;SDS011;61985;51.070;14.064;2023-05-29T13:47:14;5.53;;;2.70;;
73684;SDS011;61985;51.070;14.064;2023-05-29T13:49:40;6.32;;;2.53;;
73684;SDS011;61985;51.070;14.064;2023-05-29T13:52:05;6.35;;;2.55;;
73684;SDS011;61985;51.070;14.064;2023-05-29T13:54:31;6.97;;;2.70;;
73684;SDS011;61985;51.070;14.064;2023-05-29T13:57:00;8.25;;;3.35;;
73684;SDS011;61985;51.070;14.064;2023-05-29T13:59:32;7.60;;;2.97;;
73684;SDS011;61985;51.070;14.064;2023-05-29T14:01:58;6.03;;;2.80;;
73684;SDS011;61985;51.070;14.064;2023-05-29T14:04:24;8.25;;;3.08;;
73684;SDS011;61985;51.070;14.064;2023-05-29T14:06:50;8.50;;;2.83;;
73684;SDS011;61985;51.070;14.064;2023-05-29T14:09:16;6.18;;;3.10;;
73684;SDS011;61985;51.070;14.064;2023-05-29T14:11:41;9.00;;;3.28;;
73684;SDS011;61985;51.070;14.064;2023-05-29T14:14:07;4.80;;;2.53;;
73684;SDS011;61985;51.070;14.064;2023-05-29T14:16:33;6.05;;;2.95;;
73684;SDS011;61985;51.070;14.064;2023-05-29T14:18:59;11.38;;;3.28;;
73684;SDS011;61985;51.070;14.064;2023-05-29T14:21:25;8.75;;;3.13;;
73684;SDS011;61985;51.070;14.064;2023-05-29T14:23:50;6.15;;;2.72;;
73684;SDS011;61985;51.070;14.064;2023-05-29T14:26:16;8.00;;;3.45;;
73684;SDS011;61985;51.070;14.064;2023-05-29T14:28:41;7.05;;;2.80;;
73684;SDS011;61985;51.070;14.064;2023-05-29T14:31:07;5.68;;;2.85;;
73684;SDS011;61985;51.070;14.064;2023-05-29T14:33:32;5.45;;;3.15;;
73684;SDS011;61985;51.070;14.064;2023-05-29T14:35:58;6.72;;;2.92;;
73684;SDS011;61985;51.070;14.064;2023-05-29T14:38:24;6.20;;;2.80;;
73684;SDS011;61985;51.070;14.064;2023-05-29T14:40:50;6.70;;;2.83;;
73684;SDS011;61985;51.070;14.064;2023-05-29T14:43:16;6.35;;;2.97;;
73684;SDS011;61985;51.070;14.064;2023-05-29T14:45:41;4.28;;;2.53;;
73684;SDS011;61985;51.070;14.064;2023-05-29T14:48:07;7.47;;;2.88;;
73684;SDS011;61985;51.070;14.064;2023-05-29T14:50:32;8.23;;;3.17;;
73684;SDS011;61985;51.070;14.064;2023-05-29T14:52:57;6.97;;;3.22;;
73684;SDS011;61985;51.070;14.064;2023-05-29T14:55:23;6.80;;;2.90;;
73684;SDS011;61985;51.070;14.064;2023-05-29T14:57:48;6.40;;;2.80;;
73684;SDS011;61985;51.070;14.064;2023-05-29T15:00:14;4.68;;;2.70;;
73684;SDS011;61985;51.070;14.064;2023-05-29T15:02:39;5.68;;;2.90;;
73684;SDS011;61985;51.070;14.064;2023-05-29T15:05:05;5.90;;;3.00;;
73684;SDS011;61985;51.070;14.064;2023-05-29T15:07:31;5.03;;;2.80;;
73684;SDS011;61985;51.070;14.064;2023-05-29T15:09:59;7.30;;;2.90;;
73684;SDS011;61985;51.070;14.064;2023-05-29T15:12:25;6.50;;;3.10;;
73684;SDS011;61985;51.070;14.064;2023-05-29T15:14:51;6.85;;;2.78;;
73684;SDS011;61985;51.070;14.064;2023-05-29T15:17:16;4.50;;;2.72;;
73684;SDS011;61985;51.070;14.064;2023-05-29T15:19:42;7.22;;;2.78;;
73684;SDS011;61985;51.070;14.064;2023-05-29T15:22:08;5.20;;;2.65;;
73684;SDS011;61985;51.070;14.064;2023-05-29T15:24:33;6.40;;;2.95;;
73684;SDS011;61985;51.070;14.064;2023-05-29T15:26:58;5.75;;;2.58;;
73684;SDS011;61985;51.070;14.064;2023-05-29T15:29:24;6.88;;;2.75;;
73684;SDS011;61985;51.070;14.064;2023-05-29T15:31:49;4.65;;;2.50;;
73684;SDS011;61985;51.070;14.064;2023-05-29T15:34:14;6.10;;;3.00;;
73684;SDS011;61985;51.070;14.064;2023-05-29T15:36:40;6.35;;;2.88;;
73684;SDS011;61985;51.070;14.064;2023-05-29T15:39:05;8.57;;;2.88;;
73684;SDS011;61985;51.070;14.064;2023-05-29T15:41:31;5.75;;;2.67;;
73684;SDS011;61985;51.070;14.064;2023-05-29T15:43:56;5.05;;;2.85;;
73684;SDS011;61985;51.070;14.064;2023-05-29T15:46:26;6.32;;;2.75;;
73684;SDS011;61985;51.070;14.064;2023-05-29T15:48:52;7.95;;;3.10;;
73684;SDS011;61985;51.070;14.064;2023-05-29T15:51:17;5.10;;;2.60;;
73684;SDS011;61985;51.070;14.064;2023-05-29T15:53:43;7.00;;;2.88;;
73684;SDS011;61985;51.070;14.064;2023-05-29T15:56:08;7.38;;;3.60;;
73684;SDS011;61985;51.070;14.064;2023-05-29T15:58:33;7.72;;;2.92;;
73684;SDS011;61985;51.070;14.064;2023-05-29T16:01:00;5.47;;;2.70;;
73684;SDS011;61985;51.070;14.064;2023-05-29T16:03:27;5.50;;;2.70;;
73684;SDS011;61985;51.070;14.064;2023-05-29T16:05:53;6.97;;;2.90;;
73684;SDS011;61985;51.070;14.064;2023-05-29T16:08:18;7.07;;;2.88;;
73684;SDS011;61985;51.070;14.064;2023-05-29T16:10:44;5.80;;;2.85;;
73684;SDS011;61985;51.070;14.064;2023-05-29T16:13:28;5.80;;;2.78;;
73684;SDS011;61985;51.070;14.064;2023-05-29T16:15:57;7.22;;;3.45;;
73684;SDS011;61985;51.070;14.064;2023-05-29T16:18:23;6.10;;;3.13;;
73684;SDS011;61985;51.070;14.064;2023-05-29T16:20:49;6.03;;;2.67;;